createdAt,value
2017-10-26T00:01:31.720Z,32.47
2017-10-26T00:04:02.587Z,29.80
2017-10-26T00:06:31.707Z,30.17
2017-10-26T00:09:00.682Z,25.03
2017-10-26T00:11:31.621Z,32.93
2017-10-26T00:14:00.803Z,24.33
2017-10-26T00:16:29.653Z,31.10
2017-10-26T00:18:59.398Z,29.43
2017-10-26T00:21:29.034Z,25.80
2017-10-26T00:23:58.210Z,30.53
2017-10-26T00:26:27.284Z,28.27
2017-10-26T00:28:56.863Z,29.67
2017-10-26T00:31:26.484Z,28.47
2017-10-26T00:33:56.046Z,37.53
2017-10-26T00:36:25.152Z,29.53
2017-10-26T00:38:54.033Z,30.50
2017-10-26T00:41:23.742Z,26.10
2017-10-26T00:43:52.438Z,37.37
2017-10-26T00:46:21.573Z,32.93
2017-10-26T00:48:50.469Z,31.73
2017-10-26T00:51:19.307Z,38.33
2017-10-26T00:53:48.300Z,35.23
2017-10-26T00:56:18.298Z,45.30
2017-10-26T00:58:47.108Z,41.60
2017-10-26T01:01:16.006Z,41.00
2017-10-26T01:03:44.832Z,44.33
2017-10-26T01:06:14.089Z,45.00
2017-10-26T01:08:43.086Z,37.67
2017-10-26T01:11:13.099Z,40.43
2017-10-26T01:13:41.987Z,42.60
2017-10-26T01:16:10.878Z,48.57
2017-10-26T01:18:39.778Z,42.33
2017-10-26T01:21:08.963Z,47.13
2017-10-26T01:23:37.866Z,44.70
2017-10-26T01:26:07.575Z,44.43
2017-10-26T01:28:36.564Z,41.87
2017-10-26T01:31:05.354Z,41.60
2017-10-26T01:33:35.062Z,38.27
2017-10-26T01:36:03.854Z,35.47
2017-10-26T01:38:33.506Z,36.10
2017-10-26T01:41:02.656Z,40.30
2017-10-26T01:43:31.855Z,38.00
2017-10-26T01:46:00.957Z,34.33
2017-10-26T01:48:30.613Z,34.73
2017-10-26T01:50:59.464Z,32.73
2017-10-26T01:53:28.687Z,32.07
2017-10-26T01:55:57.852Z,33.17
2017-10-26T01:58:26.737Z,33.40
2017-10-26T02:00:56.966Z,35.67
2017-10-26T02:03:29.025Z,31.33
2017-10-26T02:05:57.914Z,25.27
2017-10-26T02:08:27.732Z,30.80
2017-10-26T02:10:56.934Z,30.73
2017-10-26T02:13:26.180Z,28.10
2017-10-26T02:15:55.322Z,29.97
2017-10-26T02:18:25.032Z,26.83
2017-10-26T02:20:54.139Z,32.93
2017-10-26T02:23:23.372Z,33.53
2017-10-26T02:25:52.417Z,29.37
2017-10-26T02:28:21.830Z,26.33
2017-10-26T02:31:02.775Z,28.80
2017-10-26T02:33:31.885Z,30.70
2017-10-26T02:36:01.200Z,26.03
2017-10-26T02:38:30.090Z,23.70
2017-10-26T02:40:59.441Z,30.23
2017-10-26T02:43:28.900Z,21.93
2017-10-26T02:45:58.124Z,27.63
2017-10-26T02:48:27.259Z,33.47
2017-10-26T02:50:56.426Z,26.37
2017-10-26T02:53:26.103Z,29.63
2017-10-26T02:55:54.788Z,24.73
2017-10-26T02:58:23.471Z,27.70
2017-10-26T03:00:52.303Z,29.60
2017-10-26T03:03:21.151Z,26.53
2017-10-26T03:05:50.039Z,25.20
2017-10-26T03:08:18.930Z,27.40
2017-10-26T03:10:47.720Z,27.77
2017-10-26T03:13:16.507Z,33.80
2017-10-26T03:15:45.360Z,30.03
2017-10-26T03:18:14.084Z,31.67
2017-10-26T03:20:42.771Z,28.23
2017-10-26T03:23:11.457Z,23.80
2017-10-26T03:25:40.153Z,29.30
2017-10-26T03:28:08.881Z,25.83
2017-10-26T03:30:37.823Z,30.47
2017-10-26T03:33:06.511Z,30.13
2017-10-26T03:35:35.400Z,30.20
2017-10-26T03:38:04.292Z,22.93
2017-10-26T03:40:32.978Z,31.10
2017-10-26T03:43:01.663Z,28.43
2017-10-26T03:45:30.567Z,29.50
2017-10-26T03:47:59.446Z,30.77
2017-10-26T03:50:28.480Z,27.87
2017-10-26T03:52:57.445Z,27.73
2017-10-26T03:55:26.120Z,30.00
2017-10-26T03:57:54.810Z,25.63
2017-10-26T04:00:23.698Z,23.63
2017-10-26T04:02:53.208Z,28.57
2017-10-26T04:05:22.097Z,24.50
2017-10-26T04:07:51.152Z,25.67
2017-10-26T04:10:19.876Z,30.50
2017-10-26T04:12:48.562Z,25.33
2017-10-26T04:15:17.353Z,22.80
2017-10-26T04:17:46.142Z,25.60
2017-10-26T04:20:14.825Z,24.80
2017-10-26T04:22:43.613Z,23.77
2017-10-26T04:25:12.506Z,32.33
2017-10-26T04:27:41.406Z,23.00
2017-10-26T04:30:10.861Z,45.50
2017-10-26T04:32:39.792Z,27.70
2017-10-26T04:35:08.683Z,27.23
2017-10-26T04:37:37.579Z,27.70
2017-10-26T04:40:06.471Z,27.90
2017-10-26T04:42:35.155Z,27.90
2017-10-26T04:45:04.053Z,31.20
2017-10-26T04:47:32.935Z,23.17
2017-10-26T04:50:01.724Z,31.33
2017-10-26T04:52:30.615Z,27.93
2017-10-26T04:54:59.404Z,24.83
2017-10-26T04:57:28.300Z,27.70
2017-10-26T04:59:57.186Z,29.00
2017-10-26T05:02:25.878Z,30.53
2017-10-26T05:04:54.659Z,30.40
2017-10-26T05:07:23.545Z,28.53
2017-10-26T05:09:52.237Z,29.60
2017-10-26T05:12:20.922Z,28.10
2017-10-26T05:14:49.609Z,23.80
2017-10-26T05:17:18.302Z,22.20
2017-10-26T05:19:46.981Z,31.20
2017-10-26T05:22:15.770Z,26.30
2017-10-26T05:24:44.456Z,22.83
2017-10-26T05:27:13.146Z,24.17
2017-10-26T05:29:42.040Z,22.50
2017-10-26T05:32:11.134Z,25.00
2017-10-26T05:34:40.435Z,23.83
2017-10-26T05:37:09.224Z,26.50
2017-10-26T05:39:38.116Z,29.17
2017-10-26T05:42:07.825Z,33.50
2017-10-26T05:44:36.716Z,24.60
2017-10-26T05:47:05.608Z,26.63
2017-10-26T05:49:34.609Z,29.50
2017-10-26T05:52:03.597Z,29.17
2017-10-26T05:54:32.424Z,29.43
2017-10-26T05:57:01.385Z,33.43
2017-10-26T05:59:31.085Z,26.80
2017-10-26T06:01:59.878Z,27.90
2017-10-26T06:04:28.764Z,28.73
2017-10-26T06:06:57.654Z,23.13
2017-10-26T06:09:26.284Z,28.93
2017-10-26T06:11:55.026Z,24.87
2017-10-26T06:14:23.915Z,31.73
2017-10-26T06:16:52.600Z,35.93
2017-10-26T06:19:21.288Z,29.63
2017-10-26T06:21:49.909Z,35.50
2017-10-26T06:24:18.893Z,31.40
2017-10-26T06:26:48.370Z,32.47
2017-10-26T06:29:17.261Z,30.33
2017-10-26T06:31:45.948Z,29.57
2017-10-26T06:34:14.639Z,30.07
2017-10-26T06:36:43.528Z,36.57
2017-10-26T06:39:13.041Z,33.47
2017-10-26T06:41:41.722Z,43.43
2017-10-26T06:44:10.610Z,38.13
2017-10-26T06:46:39.498Z,54.17
2017-10-26T06:49:08.390Z,32.93
2017-10-26T06:51:37.076Z,42.53
2017-10-26T06:54:05.865Z,62.63
2017-10-26T06:56:34.551Z,50.60
2017-10-26T06:59:03.441Z,48.40
2017-10-26T07:01:32.132Z,57.73
2017-10-26T07:04:00.814Z,38.80
2017-10-26T07:06:29.602Z,35.47
2017-10-26T07:08:58.289Z,38.17
2017-10-26T07:11:26.975Z,44.57
2017-10-26T07:13:55.765Z,45.00
2017-10-26T07:16:24.451Z,46.57
2017-10-26T07:18:53.136Z,36.60
2017-10-26T07:21:21.773Z,47.30
2017-10-26T07:23:50.367Z,32.50
2017-10-26T07:26:20.015Z,48.67
2017-10-26T07:28:48.916Z,44.33
2017-10-26T07:31:17.800Z,49.13
2017-10-26T07:33:46.690Z,38.27
2017-10-26T07:36:15.585Z,52.00
2017-10-26T07:38:44.471Z,43.20
2017-10-26T07:41:13.362Z,39.67
2017-10-26T07:43:42.045Z,35.33
2017-10-26T07:46:10.938Z,31.13
2017-10-26T07:48:39.630Z,39.63
2017-10-26T07:51:08.515Z,43.47
2017-10-26T07:53:37.204Z,32.80
2017-10-26T07:56:05.886Z,39.70
2017-10-26T07:58:34.734Z,54.57
2017-10-26T08:01:03.470Z,37.97
2017-10-26T08:03:32.968Z,34.03
2017-10-26T08:06:01.860Z,33.37
2017-10-26T08:08:30.546Z,33.70
2017-10-26T08:10:59.182Z,36.37
2017-10-26T08:13:27.804Z,33.37
2017-10-26T08:15:56.605Z,33.80
2017-10-26T08:18:25.497Z,32.20
2017-10-26T08:20:54.391Z,40.70
2017-10-26T08:23:23.282Z,33.07
2017-10-26T08:25:52.172Z,36.47
2017-10-26T08:28:20.963Z,39.03
2017-10-26T08:30:50.568Z,45.43
2017-10-26T08:33:19.252Z,35.73
2017-10-26T08:35:48.150Z,34.30
2017-10-26T08:38:16.933Z,56.83
2017-10-26T08:40:45.823Z,35.17
2017-10-26T08:43:14.714Z,26.13
2017-10-26T08:45:43.400Z,26.97
2017-10-26T08:48:12.293Z,27.20
2017-10-26T08:50:42.002Z,22.70
2017-10-26T08:53:10.895Z,28.43
2017-10-26T08:55:39.733Z,30.17
2017-10-26T08:58:08.676Z,33.40
2017-10-26T09:00:37.567Z,29.87
2017-10-26T09:03:07.277Z,27.03
2017-10-26T09:05:36.173Z,27.43
2017-10-26T09:08:04.881Z,17.60
2017-10-26T09:10:33.852Z,25.57
2017-10-26T09:13:02.748Z,28.80
2017-10-26T09:15:31.996Z,16.47
2017-10-26T09:18:01.648Z,28.00
2017-10-26T09:20:30.552Z,25.37
2017-10-26T09:22:59.439Z,27.23
2017-10-26T09:25:28.425Z,21.87
2017-10-26T09:27:57.323Z,22.33
2017-10-26T09:30:27.026Z,21.13
2017-10-26T09:33:01.443Z,17.77
2017-10-26T09:35:30.336Z,20.60
2017-10-26T09:37:59.012Z,23.50
2017-10-26T09:40:27.809Z,19.37
2017-10-26T09:42:56.806Z,21.63
2017-10-26T09:45:25.698Z,24.87
2017-10-26T09:47:54.594Z,19.53
2017-10-26T09:50:24.295Z,30.17
2017-10-26T09:52:53.189Z,22.70
2017-10-26T09:55:22.081Z,21.67
2017-10-26T09:57:51.072Z,33.53
2017-10-26T10:00:19.965Z,31.93
2017-10-26T10:02:49.676Z,26.93
2017-10-26T10:05:18.581Z,26.70
2017-10-26T10:07:47.864Z,24.33
2017-10-26T10:10:16.823Z,22.30
2017-10-26T10:12:45.855Z,19.60
2017-10-26T10:15:14.754Z,31.43
2017-10-26T10:17:43.742Z,20.17
2017-10-26T10:20:13.452Z,32.13
2017-10-26T10:22:42.345Z,21.20
2017-10-26T10:25:11.229Z,19.57
2017-10-26T10:27:40.124Z,20.70
2017-10-26T10:30:09.215Z,26.70
2017-10-26T10:32:39.747Z,29.53
2017-10-26T10:35:08.635Z,22.43
2017-10-26T10:37:37.528Z,29.57
2017-10-26T10:40:06.419Z,27.43
2017-10-26T10:42:35.312Z,27.43
2017-10-26T10:45:04.202Z,25.03
2017-10-26T10:47:33.089Z,32.77
2017-10-26T10:50:01.982Z,29.03
2017-10-26T10:52:30.874Z,21.53
2017-10-26T10:54:59.764Z,27.77
2017-10-26T10:57:28.655Z,27.10
2017-10-26T11:00:02.992Z,32.23
2017-10-26T11:02:32.155Z,28.90
2017-10-26T11:05:00.901Z,24.37
2017-10-26T11:07:30.157Z,27.97
2017-10-26T11:09:59.459Z,31.43
2017-10-26T11:12:30.893Z,24.67
2017-10-26T11:15:00.144Z,27.10
2017-10-26T11:17:29.326Z,25.57
2017-10-26T11:19:58.265Z,26.53
2017-10-26T11:22:27.557Z,31.53
2017-10-26T11:24:56.653Z,26.00
2017-10-26T11:27:25.698Z,26.40
2017-10-26T11:29:55.158Z,32.33
2017-10-26T11:32:24.092Z,25.50
2017-10-26T11:34:53.140Z,22.60
2017-10-26T11:37:22.384Z,19.03
2017-10-26T11:39:51.078Z,21.33
2017-10-26T11:42:21.135Z,18.57
2017-10-26T11:44:50.233Z,19.00
2017-10-26T11:47:19.810Z,15.33
2017-10-26T11:49:50.318Z,13.13
2017-10-26T11:52:19.877Z,13.20
2017-10-26T11:54:48.623Z,11.73
2017-10-26T11:57:17.416Z,15.70
2017-10-26T11:59:47.090Z,18.17
2017-10-26T12:02:17.094Z,24.30
2017-10-26T12:04:46.224Z,16.47
2017-10-26T12:07:16.073Z,14.60
2017-10-26T12:09:44.920Z,22.60
2017-10-26T12:12:15.665Z,12.87
2017-10-26T12:14:44.511Z,11.53
2017-10-26T12:17:13.446Z,21.47
2017-10-26T12:19:42.340Z,15.77
2017-10-26T12:22:11.225Z,16.63
2017-10-26T12:24:40.122Z,15.63
2017-10-26T12:27:09.827Z,17.10
2017-10-26T12:29:38.618Z,17.30
2017-10-26T12:32:07.509Z,17.30
2017-10-26T12:34:36.399Z,11.33
2017-10-26T12:37:05.288Z,13.20
2017-10-26T12:39:34.999Z,12.87
2017-10-26T12:42:03.899Z,14.07
2017-10-26T12:44:32.881Z,18.67
2017-10-26T12:47:01.669Z,31.30
2017-10-26T12:49:31.450Z,14.03
2017-10-26T12:52:00.271Z,12.53
2017-10-26T12:54:29.366Z,16.83
2017-10-26T12:56:58.468Z,17.50
2017-10-26T12:59:27.581Z,22.10
2017-10-26T13:01:57.237Z,16.63
2017-10-26T13:04:26.521Z,10.00
2017-10-26T13:06:55.480Z,11.17
2017-10-26T13:09:25.393Z,14.97
2017-10-26T13:11:54.948Z,16.47
2017-10-26T13:14:23.729Z,10.70
2017-10-26T13:16:52.648Z,9.80
2017-10-26T13:19:21.508Z,13.10
2017-10-26T13:21:50.291Z,11.30
2017-10-26T13:24:19.155Z,11.77
2017-10-26T13:26:47.979Z,10.90
2017-10-26T13:29:16.676Z,8.83
2017-10-26T13:31:45.556Z,11.73
2017-10-26T13:34:14.523Z,11.80
2017-10-26T13:36:44.045Z,12.30
2017-10-26T13:39:12.831Z,13.33
2017-10-26T13:41:41.680Z,13.60
2017-10-26T13:44:16.406Z,8.43
2017-10-26T13:46:45.307Z,10.33
2017-10-26T13:49:14.803Z,14.37
2017-10-26T13:51:43.849Z,15.93
2017-10-26T13:54:13.095Z,18.87
2017-10-26T13:56:42.002Z,15.07
2017-10-26T13:59:10.881Z,19.93
2017-10-26T14:01:39.879Z,19.57
2017-10-26T14:04:09.586Z,32.80
2017-10-26T14:06:38.472Z,16.93
2017-10-26T14:09:07.267Z,12.70
2017-10-26T14:11:36.152Z,12.00
2017-10-26T14:14:04.845Z,14.02
2017-10-26T14:16:33.737Z,16.93
2017-10-26T14:19:02.388Z,13.73
2017-10-26T14:21:31.307Z,17.10
2017-10-26T14:24:00.096Z,16.67
2017-10-26T14:26:28.782Z,10.77
2017-10-26T14:28:57.674Z,13.80
2017-10-26T14:31:26.573Z,9.77
2017-10-26T14:33:55.458Z,14.87
2017-10-26T14:36:24.206Z,13.40
2017-10-26T14:38:53.032Z,13.03
2017-10-26T14:41:21.923Z,17.83
2017-10-26T14:43:50.814Z,23.13
2017-10-26T14:46:19.707Z,19.93
2017-10-26T14:48:48.392Z,16.60
2017-10-26T14:51:17.022Z,18.27
2017-10-26T14:53:45.866Z,20.23
2017-10-26T14:56:14.554Z,19.80
2017-10-26T14:58:43.291Z,15.43
2017-10-26T15:01:12.951Z,17.33
2017-10-26T15:03:41.738Z,26.57
2017-10-26T15:06:10.630Z,23.10
2017-10-26T15:08:39.567Z,12.60
2017-10-26T15:11:08.306Z,21.53
2017-10-26T15:13:36.996Z,23.63
2017-10-26T15:16:05.885Z,30.80
2017-10-26T15:18:34.673Z,24.97
2017-10-26T15:21:03.367Z,17.30
2017-10-26T15:23:32.254Z,23.17
2017-10-26T15:26:00.941Z,19.67
2017-10-26T15:28:29.829Z,17.03
2017-10-26T15:30:58.724Z,21.87
2017-10-26T15:33:27.413Z,36.23
2017-10-26T15:35:56.202Z,22.83
2017-10-26T15:38:25.197Z,26.73
2017-10-26T15:40:54.084Z,17.00
2017-10-26T15:43:22.999Z,23.77
2017-10-26T15:45:52.064Z,24.87
2017-10-26T15:48:21.468Z,27.70
2017-10-26T15:50:50.275Z,24.50
2017-10-26T15:53:19.046Z,24.63
2017-10-26T15:55:47.875Z,25.57
2017-10-26T15:58:16.624Z,27.93
2017-10-26T16:00:46.259Z,60.30
2017-10-26T16:03:16.827Z,34.27
2017-10-26T16:05:46.240Z,26.00
2017-10-26T16:08:15.362Z,26.20
2017-10-26T16:10:44.056Z,31.07
2017-10-26T16:13:12.709Z,30.67
2017-10-26T16:15:41.385Z,30.33
2017-10-26T16:18:10.105Z,23.53
2017-10-26T16:20:38.737Z,25.20
2017-10-26T16:23:08.097Z,25.67
2017-10-26T16:25:36.780Z,31.23
2017-10-26T16:28:05.678Z,30.03
2017-10-26T16:30:35.384Z,29.80
2017-10-26T16:33:04.692Z,27.83
2017-10-26T16:35:33.573Z,33.87
2017-10-26T16:38:02.363Z,38.47
2017-10-26T16:40:31.461Z,28.23
2017-10-26T16:43:00.253Z,35.23
2017-10-26T16:45:28.939Z,35.23
2017-10-26T16:47:57.618Z,38.63
2017-10-26T16:50:26.512Z,33.23
2017-10-26T16:52:55.404Z,43.13
2017-10-26T16:55:24.086Z,45.33
2017-10-26T16:57:52.935Z,41.90
2017-10-26T17:00:22.015Z,30.23
2017-10-26T17:02:56.911Z,27.67
2017-10-26T17:05:27.201Z,35.53
2017-10-26T17:08:03.227Z,23.27
2017-10-26T17:10:32.680Z,31.13
2017-10-26T17:13:01.996Z,30.03
2017-10-26T17:15:31.093Z,27.67
2017-10-26T17:18:00.095Z,29.80
2017-10-26T17:20:28.976Z,31.00
2017-10-26T17:22:57.887Z,35.23
2017-10-26T17:25:26.681Z,28.00
2017-10-26T17:27:56.981Z,30.13
2017-10-26T17:30:26.088Z,35.40
2017-10-26T17:32:54.961Z,32.37
2017-10-26T17:35:23.863Z,37.00
2017-10-26T17:37:52.753Z,36.30
2017-10-26T17:40:21.566Z,39.97
2017-10-26T17:42:50.530Z,34.67
2017-10-26T17:45:19.626Z,30.67
2017-10-26T17:47:48.589Z,34.57
2017-10-26T17:50:17.508Z,37.23
2017-10-26T17:52:46.347Z,43.80
2017-10-26T17:55:16.112Z,37.17
2017-10-26T17:57:45.022Z,34.80
2017-10-26T18:00:14.714Z,34.90
2017-10-26T18:02:43.605Z,44.37
2017-10-26T18:05:13.311Z,47.37
2017-10-26T18:07:42.201Z,50.53
2017-10-26T18:10:11.504Z,35.57
2017-10-26T18:12:40.597Z,35.30
2017-10-26T18:15:09.493Z,47.40
2017-10-26T18:17:38.394Z,37.80
2017-10-26T18:20:07.681Z,48.73
2017-10-26T18:22:36.430Z,41.90
2017-10-26T18:25:06.059Z,34.63
2017-10-26T18:27:35.763Z,31.60
2017-10-26T18:30:05.679Z,41.03
2017-10-26T18:32:35.792Z,40.47
2017-10-26T18:35:04.689Z,43.87
2017-10-26T18:37:34.598Z,40.63
2017-10-26T18:40:04.308Z,45.97
2017-10-26T18:42:33.116Z,43.97
2017-10-26T18:45:02.370Z,50.40
2017-10-26T18:47:31.388Z,43.03
2017-10-26T18:50:00.591Z,46.13
2017-10-26T18:52:30.687Z,40.13
2017-10-26T18:54:59.584Z,43.87
2017-10-26T18:57:28.490Z,44.87
2017-10-26T18:59:57.585Z,44.43
2017-10-26T19:02:26.868Z,54.80
2017-10-26T19:04:55.851Z,45.83
2017-10-26T19:07:24.972Z,51.00
2017-10-26T19:09:54.008Z,47.90
2017-10-26T19:12:24.054Z,49.00
2017-10-26T19:14:53.149Z,47.27
2017-10-26T19:17:21.871Z,48.60
2017-10-26T19:19:51.501Z,52.43
2017-10-26T19:22:21.910Z,51.43
2017-10-26T19:24:50.596Z,48.60
2017-10-26T19:27:19.485Z,49.97
2017-10-26T19:29:48.524Z,59.10
2017-10-26T19:32:17.270Z,59.93
2017-10-26T19:34:45.980Z,50.67
2017-10-26T19:37:14.844Z,56.00
2017-10-26T19:39:43.538Z,46.40
2017-10-26T19:42:12.216Z,55.70
2017-10-26T19:44:40.950Z,64.13
2017-10-26T19:47:09.796Z,53.20
2017-10-26T19:49:38.586Z,56.27
2017-10-26T19:52:07.269Z,61.13
2017-10-26T19:54:36.160Z,56.20
2017-10-26T19:57:04.846Z,51.07
2017-10-26T19:59:33.739Z,55.07
2017-10-26T20:02:02.486Z,46.23
2017-10-26T20:04:31.214Z,50.50
2017-10-26T20:07:00.016Z,52.50
2017-10-26T20:09:28.893Z,49.50
2017-10-26T20:11:57.578Z,55.23
2017-10-26T20:14:26.263Z,59.13
2017-10-26T20:16:55.318Z,59.80
2017-10-26T20:19:24.189Z,62.50
2017-10-26T20:21:53.145Z,60.17
2017-10-26T20:24:21.830Z,62.00
2017-10-26T20:26:50.925Z,60.50
2017-10-26T20:29:19.816Z,55.40
2017-10-26T20:31:48.501Z,60.70
2017-10-26T20:34:17.189Z,49.23
2017-10-26T20:36:45.875Z,65.23
2017-10-26T20:39:14.497Z,51.33
2017-10-26T20:41:43.258Z,51.97
2017-10-26T20:44:12.147Z,43.60
2017-10-26T20:46:40.826Z,66.33
2017-10-26T20:49:15.244Z,43.27
2017-10-26T20:51:49.668Z,40.30
2017-10-26T20:54:24.090Z,57.23
2017-10-26T20:56:59.783Z,51.23
2017-10-26T20:59:34.259Z,50.10
2017-10-26T21:02:08.425Z,48.03
2017-10-26T21:04:42.997Z,54.67
2017-10-26T21:07:18.135Z,58.40
2017-10-26T21:09:46.928Z,54.33
2017-10-26T21:12:21.040Z,42.73
2017-10-26T21:14:49.933Z,45.67
2017-10-26T21:17:18.616Z,51.60
2017-10-26T21:19:47.302Z,50.27
2017-10-26T21:22:15.990Z,46.87
2017-10-26T21:24:44.637Z,52.00
2017-10-26T21:27:13.772Z,49.83
2017-10-26T21:29:43.483Z,52.47
2017-10-26T21:32:12.203Z,49.83
2017-10-26T21:34:41.057Z,45.50
2017-10-26T21:37:09.949Z,47.83
2017-10-26T21:39:38.632Z,49.10
2017-10-26T21:42:07.321Z,48.60
2017-10-26T21:44:36.006Z,58.97
2017-10-26T21:47:04.897Z,59.70
2017-10-26T21:49:33.788Z,53.97
2017-10-26T21:52:02.681Z,59.93
2017-10-26T21:54:31.545Z,52.03
2017-10-26T21:59:55.590Z,61.80
2017-10-26T22:02:25.050Z,58.80
2017-10-26T22:04:53.970Z,46.50
2017-10-26T22:07:23.865Z,56.03
2017-10-26T22:09:52.781Z,52.77
2017-10-26T22:12:21.661Z,54.13
2017-10-26T22:14:50.555Z,51.00
2017-10-26T22:17:19.443Z,57.43
2017-10-26T22:19:48.441Z,53.13
2017-10-26T22:22:17.331Z,50.33
2017-10-26T22:24:46.222Z,50.00
2017-10-26T22:27:15.007Z,52.63
2017-10-26T22:29:43.895Z,64.13
2017-10-26T22:32:12.588Z,56.30
2017-10-26T22:34:41.271Z,65.13
2017-10-26T22:37:10.148Z,58.20
2017-10-26T22:39:39.115Z,57.87
2017-10-26T22:42:08.557Z,67.70
2017-10-26T22:44:37.656Z,69.90
2017-10-26T22:47:06.545Z,65.33
2017-10-26T22:49:35.689Z,58.77
2017-10-26T22:52:05.763Z,64.10
2017-10-26T22:54:35.168Z,62.13
2017-10-26T22:57:04.750Z,64.47
2017-10-26T22:59:33.574Z,55.47
2017-10-26T23:02:02.669Z,51.73
2017-10-26T23:04:31.435Z,47.30
2017-10-26T23:07:00.236Z,43.90
2017-10-26T23:09:28.918Z,50.37
2017-10-26T23:11:57.766Z,49.23
2017-10-26T23:14:27.317Z,50.70
2017-10-26T23:16:57.849Z,56.83
2017-10-26T23:19:26.533Z,47.30
2017-10-26T23:21:55.430Z,44.87
2017-10-26T23:24:25.241Z,57.23
2017-10-26T23:26:54.982Z,48.50
2017-10-26T23:29:24.759Z,52.77
2017-10-26T23:31:53.653Z,47.50
2017-10-26T23:34:22.507Z,44.67
2017-10-26T23:36:51.433Z,47.53
2017-10-26T23:39:20.264Z,45.00
2017-10-26T23:41:49.267Z,47.40
2017-10-26T23:44:19.238Z,51.57
2017-10-26T23:46:48.289Z,46.10
2017-10-26T23:49:17.613Z,40.07
2017-10-26T23:51:46.420Z,43.93
2017-10-26T23:54:15.323Z,40.90
2017-10-26T23:56:45.609Z,47.87
2017-10-26T23:59:35.227Z,45.27
